Time;durP1;ratioP1;P1;durP2;ratioP2;P2;SDS_P1;SDS_P2;PMS_P1;PMS_P2;Temp;Humidity;BMP_temperature;BMP_pressure;BME280_temperature;BME280_humidity;BME280_pressure;Samples;Min_cycle;Max_cycle;Signal;HPM_P1;HPM_P2
2022/07/04 00:01:05;;;;;;;10.10;2.55;;;15.40;99.90;;;;;;5055869;28;20450;-65
2022/07/04 00:03:30;;;;;;;6.82;2.33;;;15.40;99.90;;;;;;5054666;28;20032;-64
2022/07/04 00:05:56;;;;;;;10.07;2.85;;;15.40;99.90;;;;;;5053274;28;20036;-65
2022/07/04 00:08:22;;;;;;;9.32;2.63;;;15.40;99.90;;;;;;5053818;28;20033;-64
2022/07/04 00:10:47;;;;;;;8.15;2.70;;;15.40;99.90;;;;;;5052290;28;20031;-64
2022/07/04 00:13:13;;;;;;;9.27;2.90;;;15.40;99.90;;;;;;5049895;28;20051;-66
2022/07/04 00:15:38;;;;;;;12.52;3.28;;;15.50;99.90;;;;;;5049976;28;20025;-64
2022/07/04 00:18:04;;;;;;;8.90;2.47;;;15.50;99.90;;;;;;5048937;28;20021;-66
2022/07/04 00:20:30;;;;;;;8.18;2.40;;;15.40;99.90;;;;;;5049929;28;20017;-65
2022/07/04 00:22:55;;;;;;;8.07;2.15;;;15.40;99.90;;;;;;5054790;28;20021;-64
2022/07/04 00:25:21;;;;;;;14.63;4.47;;;15.40;99.90;;;;;;5053981;28;20056;-65
2022/07/04 00:27:46;;;;;;;8.60;2.70;;;15.40;99.90;;;;;;5054109;28;20040;-64
2022/07/04 00:30:12;;;;;;;13.73;5.15;;;15.40;99.90;;;;;;5053795;28;20104;-65
2022/07/04 00:32:38;;;;;;;22.85;8.82;;;15.40;99.90;;;;;;5053712;28;20125;-64
2022/07/04 00:35:04;;;;;;;9.63;3.25;;;15.40;99.90;;;;;;5054766;28;20025;-64
2022/07/04 00:37:30;;;;;;;11.80;3.33;;;15.40;99.90;;;;;;5053065;28;20025;-64
2022/07/04 00:39:56;;;;;;;8.15;2.75;;;15.30;99.90;;;;;;5054278;28;20039;-65
2022/07/04 00:42:21;;;;;;;10.20;2.40;;;15.30;99.90;;;;;;5054172;28;20055;-65
2022/07/04 00:44:47;;;;;;;10.82;2.80;;;15.30;99.90;;;;;;5053636;28;20029;-66
2022/07/04 00:47:12;;;;;;;8.05;2.20;;;15.30;99.90;;;;;;5052450;28;20029;-64
2022/07/04 00:49:39;;;;;;;8.88;3.20;;;15.30;99.90;;;;;;5054120;28;20029;-63
2022/07/04 00:52:05;;;;;;;10.07;3.15;;;15.20;99.90;;;;;;5054283;28;20017;-64
2022/07/04 00:54:32;;;;;;;12.75;3.58;;;15.20;99.90;;;;;;5052765;28;20043;-65
2022/07/04 00:56:59;;;;;;;7.47;3.00;;;15.20;99.90;;;;;;5054054;28;20033;-64
2022/07/04 00:59:25;;;;;;;9.70;2.42;;;15.20;99.90;;;;;;5054403;28;20044;-68
2022/07/04 01:01:51;;;;;;;8.02;2.90;;;15.20;99.90;;;;;;5053172;28;20029;-66
2022/07/04 01:04:18;;;;;;;8.45;2.42;;;15.20;99.90;;;;;;5053963;28;20437;-67
2022/07/04 01:06:47;;;;;;;12.35;2.72;;;15.20;99.90;;;;;;5053929;28;20530;-65
2022/07/04 01:09:13;;;;;;;7.55;2.55;;;15.10;99.90;;;;;;5053000;28;20067;-67
2022/07/04 01:11:39;;;;;;;5.43;2.15;;;15.10;99.90;;;;;;5053132;28;20378;-65
2022/07/04 01:14:07;;;;;;;8.93;2.50;;;15.10;99.90;;;;;;5054172;28;20457;-67
2022/07/04 01:16:33;;;;;;;6.53;2.15;;;15.10;99.90;;;;;;5053227;28;20046;-64
2022/07/04 01:18:59;;;;;;;9.13;2.25;;;15.10;99.90;;;;;;5053019;28;20025;-63
2022/07/04 01:21:25;;;;;;;11.45;3.42;;;15.10;99.90;;;;;;5054038;28;20021;-67
2022/07/04 01:23:51;;;;;;;7.68;2.38;;;15.10;99.90;;;;;;5052138;28;20029;-64
2022/07/04 01:26:16;;;;;;;15.30;4.63;;;15.10;99.90;;;;;;5054033;28;20040;-64
2022/07/04 01:28:44;;;;;;;10.00;3.70;;;15.10;99.90;;;;;;5051929;28;20054;-65
2022/07/04 01:31:09;;;;;;;11.25;3.33;;;15.10;99.90;;;;;;5050790;28;20041;-67
2022/07/04 01:33:35;;;;;;;15.50;4.43;;;15.10;99.90;;;;;;5051722;28;20045;-66
2022/07/04 01:36:00;;;;;;;14.30;3.42;;;15.10;99.90;;;;;;5053136;28;20040;-64
2022/07/04 01:38:26;;;;;;;9.02;2.90;;;15.10;99.90;;;;;;5052456;28;20033;-67
2022/07/04 01:40:52;;;;;;;9.93;3.58;;;15.10;99.90;;;;;;5053316;28;20035;-64
2022/07/04 01:43:17;;;;;;;10.23;4.10;;;15.00;99.90;;;;;;5053276;28;20077;-66
2022/07/04 01:45:44;;;;;;;11.52;3.55;;;15.00;99.90;;;;;;5051783;28;20043;-64
2022/07/04 01:48:11;;;;;;;19.50;5.47;;;15.00;99.90;;;;;;5054816;28;20103;-64
2022/07/04 01:50:37;;;;;;;12.63;3.97;;;15.00;99.90;;;;;;5053712;28;20032;-64
2022/07/04 01:53:03;;;;;;;21.10;6.82;;;15.00;99.90;;;;;;5050997;28;20043;-66
2022/07/04 01:55:29;;;;;;;10.63;2.83;;;14.90;99.90;;;;;;5042398;28;20427;-64
2022/07/04 01:57:55;;;;;;;13.55;3.08;;;14.90;99.90;;;;;;5051181;28;20028;-68
2022/07/04 02:03:07;;;;;;;15.43;3.40;;;14.80;99.90;;;;;;5053064;28;20412;-67
2022/07/04 02:05:33;;;;;;;13.40;4.20;;;14.80;99.90;;;;;;5052301;28;20498;-66
2022/07/04 02:07:59;;;;;;;11.82;4.28;;;14.80;99.90;;;;;;5051461;28;20078;-65
2022/07/04 02:10:24;;;;;;;13.25;3.80;;;14.80;99.90;;;;;;5051811;28;20036;-65
2022/07/04 02:13:02;;;;;;;17.08;4.20;;;14.80;99.90;;;;;;5052909;28;20117;-65
2022/07/04 02:15:45;;;;;;;13.45;3.90;;;14.80;99.90;;;;;;5052716;28;20035;-64
2022/07/04 02:18:11;;;;;;;14.40;4.00;;;14.80;99.90;;;;;;5052583;28;20104;-64
2022/07/04 02:20:37;;;;;;;13.63;3.63;;;14.80;99.90;;;;;;5051314;28;20021;-65
2022/07/04 02:23:04;;;;;;;12.27;3.95;;;14.70;99.90;;;;;;5051042;28;20024;-64
2022/07/04 02:25:30;;;;;;;10.60;3.65;;;14.70;99.90;;;;;;5052787;28;20063;-68
2022/07/04 02:27:56;;;;;;;13.98;4.45;;;14.80;99.90;;;;;;5051858;28;20417;-64
2022/07/04 02:30:23;;;;;;;12.95;4.20;;;14.70;99.90;;;;;;5050673;28;20396;-64
2022/07/04 02:32:48;;;;;;;14.70;5.03;;;14.70;99.90;;;;;;5051856;28;20391;-64
2022/07/04 02:35:14;;;;;;;12.20;4.10;;;14.80;99.90;;;;;;5052839;28;20021;-65
2022/07/04 02:37:41;;;;;;;16.23;4.20;;;14.80;99.90;;;;;;5051866;28;20052;-65
2022/07/04 02:40:08;;;;;;;9.48;3.05;;;14.80;99.90;;;;;;5052051;28;20060;-64
2022/07/04 02:42:35;;;;;;;10.48;3.35;;;14.90;99.90;;;;;;5051717;28;20043;-63
2022/07/04 02:45:01;;;;;;;11.27;3.50;;;14.90;99.90;;;;;;5051821;28;20028;-64
2022/07/04 02:47:27;;;;;;;9.65;3.05;;;15.00;99.90;;;;;;5051845;28;20455;-65
2022/07/04 02:49:53;;;;;;;14.07;3.95;;;14.90;99.90;;;;;;5051937;28;20044;-64
2022/07/04 02:52:19;;;;;;;12.98;2.95;;;14.90;99.90;;;;;;5051828;28;20164;-65
2022/07/04 02:54:45;;;;;;;12.88;3.72;;;15.00;99.90;;;;;;5050993;28;20449;-63
2022/07/04 02:57:11;;;;;;;9.70;3.22;;;14.90;99.90;;;;;;5051787;28;20536;-64
2022/07/04 02:59:37;;;;;;;11.10;3.53;;;15.00;99.90;;;;;;5051846;28;20060;-66
2022/07/04 03:02:02;;;;;;;10.57;3.38;;;15.00;99.90;;;;;;5051479;28;20059;-64
2022/07/04 03:04:28;;;;;;;12.73;4.05;;;15.00;99.90;;;;;;5050375;28;20020;-66
2022/07/04 03:06:53;;;;;;;15.85;3.90;;;15.10;99.90;;;;;;5051462;28;20029;-63
2022/07/04 03:09:19;;;;;;;15.00;5.07;;;15.10;99.90;;;;;;5051401;28;20025;-63
2022/07/04 03:11:45;;;;;;;17.85;5.05;;;15.10;99.90;;;;;;5056207;28;20347;-64
2022/07/04 03:14:10;;;;;;;15.45;4.88;;;15.10;99.90;;;;;;5056629;28;20415;-64
2022/07/04 03:16:36;;;;;;;11.38;4.05;;;15.10;99.90;;;;;;5055882;28;20020;-64
2022/07/04 03:19:02;;;;;;;12.50;4.63;;;15.10;99.90;;;;;;5055558;28;20044;-64
2022/07/04 03:21:27;;;;;;;14.52;4.70;;;15.10;99.90;;;;;;5056093;28;20156;-66
2022/07/04 03:23:59;;;;;;;6.97;3.10;;;15.10;99.90;;;;;;5055651;28;20037;-64
2022/07/04 03:26:27;;;;;;;13.35;3.55;;;15.10;99.90;;;;;;5055998;28;20120;-64
2022/07/04 03:28:53;;;;;;;14.02;4.43;;;15.10;99.90;;;;;;5055215;28;20025;-62
2022/07/04 03:31:18;;;;;;;15.02;4.85;;;15.10;99.90;;;;;;5055302;28;20073;-64
2022/07/04 03:33:44;;;;;;;13.73;3.65;;;15.10;99.90;;;;;;5055336;28;20045;-66
2022/07/04 03:36:09;;;;;;;14.55;5.40;;;15.10;99.90;;;;;;5055678;28;20032;-65
2022/07/04 03:38:35;;;;;;;15.30;4.57;;;15.10;99.90;;;;;;5055481;28;20094;-65
2022/07/04 03:41:00;;;;;;;10.95;3.58;;;15.10;99.90;;;;;;5053610;28;20060;-67
2022/07/04 03:43:26;;;;;;;15.55;3.90;;;15.10;99.90;;;;;;5055147;28;20029;-64
2022/07/04 03:45:52;;;;;;;11.35;3.90;;;15.10;99.90;;;;;;5041006;28;20128;-64
2022/07/04 03:48:17;;;;;;;21.23;5.90;;;15.20;99.90;;;;;;5050958;28;20100;-65
2022/07/04 03:50:43;;;;;;;13.85;4.40;;;15.20;99.90;;;;;;5053778;28;20038;-64
2022/07/04 03:53:08;;;;;;;16.73;4.97;;;15.30;99.90;;;;;;5054647;28;20031;-64
2022/07/04 03:55:34;;;;;;;17.27;5.47;;;15.30;99.90;;;;;;5054312;28;20104;-67
2022/07/04 03:58:00;;;;;;;12.95;4.60;;;15.40;99.90;;;;;;5054884;28;20422;-64
2022/07/04 04:00:26;;;;;;;12.77;4.97;;;15.40;99.90;;;;;;5054714;28;20021;-64
2022/07/04 04:02:51;;;;;;;12.95;3.78;;;15.50;99.90;;;;;;5055016;28;20040;-65
2022/07/04 04:05:26;;;;;;;15.00;4.35;;;15.40;99.90;;;;;;5055012;28;20056;-64
2022/07/04 04:07:57;;;;;;;15.85;4.32;;;15.40;99.90;;;;;;5050955;28;20040;-66
2022/07/04 04:10:22;;;;;;;15.90;4.05;;;15.40;99.90;;;;;;5054145;28;20024;-67
2022/07/04 04:12:48;;;;;;;13.02;4.18;;;15.40;99.90;;;;;;5054248;28;20370;-64
2022/07/04 04:15:14;;;;;;;13.45;5.18;;;15.40;99.90;;;;;;5053653;28;20033;-64
2022/07/04 04:17:39;;;;;;;14.27;5.05;;;15.50;99.90;;;;;;5053114;28;20097;-65
2022/07/04 04:20:05;;;;;;;10.85;3.83;;;15.50;99.90;;;;;;5051647;28;20009;-65
2022/07/04 04:22:31;;;;;;;22.10;5.93;;;15.50;99.90;;;;;;5035030;28;20032;-63
2022/07/04 04:24:59;;;;;;;11.68;4.25;;;15.50;99.90;;;;;;5036759;28;20037;-63
2022/07/04 04:27:25;;;;;;;12.80;4.85;;;15.50;99.90;;;;;;5053996;28;20025;-63
2022/07/04 04:29:50;;;;;;;13.18;3.83;;;15.60;99.90;;;;;;5053565;28;20023;-64
2022/07/04 04:32:16;;;;;;;10.90;3.90;;;15.60;99.90;;;;;;5053337;28;20048;-65
2022/07/04 04:34:41;;;;;;;16.40;4.75;;;15.60;99.90;;;;;;5052186;28;20524;-67
2022/07/04 04:37:07;;;;;;;21.92;5.85;;;15.60;99.90;;;;;;5052622;28;20060;-64
2022/07/04 04:39:33;;;;;;;14.77;4.00;;;15.70;99.90;;;;;;5052893;28;20028;-65
2022/07/04 04:41:58;;;;;;;15.68;5.05;;;15.70;99.90;;;;;;5051478;28;20046;-65
2022/07/04 04:44:24;;;;;;;12.68;3.80;;;15.80;99.90;;;;;;5053479;28;20075;-66
2022/07/04 04:46:49;;;;;;;14.85;4.20;;;15.80;99.90;;;;;;5052999;28;20029;-64
2022/07/04 04:49:16;;;;;;;18.90;4.43;;;15.90;99.90;;;;;;5052630;28;20021;-63
2022/07/04 04:51:42;;;;;;;10.05;3.83;;;15.90;99.90;;;;;;5050803;28;20024;-64
2022/07/04 04:54:08;;;;;;;15.05;5.00;;;15.90;99.90;;;;;;5051640;28;20029;-65
2022/07/04 04:56:34;;;;;;;13.73;4.95;;;15.90;99.90;;;;;;5053658;28;20056;-67
2022/07/04 04:58:59;;;;;;;9.70;3.53;;;16.00;99.90;;;;;;5053387;28;21388;-66
2022/07/04 05:01:25;;;;;;;13.43;3.70;;;16.10;99.90;;;;;;5051818;28;20335;-64
2022/07/04 05:03:50;;;;;;;8.20;3.35;;;16.10;99.90;;;;;;5053228;28;20374;-67
2022/07/04 05:06:18;;;;;;;15.13;4.95;;;16.20;99.90;;;;;;5053008;28;20335;-64
2022/07/04 05:08:44;;;;;;;11.10;3.90;;;16.40;99.90;;;;;;5052659;28;20021;-65
2022/07/04 05:11:09;;;;;;;27.85;11.45;;;16.50;99.90;;;;;;5053264;28;20023;-66
2022/07/04 05:13:35;;;;;;;81.97;37.25;;;16.60;99.90;;;;;;5052938;28;20029;-64
2022/07/04 05:16:00;;;;;;;10.65;4.20;;;16.70;99.90;;;;;;5052609;28;20024;-63
2022/07/04 05:18:26;;;;;;;9.18;3.63;;;16.90;99.90;;;;;;5052666;28;20021;-63
2022/07/04 05:20:52;;;;;;;7.88;3.28;;;17.00;99.90;;;;;;5053667;28;20083;-65
2022/07/04 05:23:17;;;;;;;14.68;4.40;;;17.20;99.90;;;;;;5054129;28;20037;-63
2022/07/04 05:25:43;;;;;;;7.70;2.95;;;17.40;99.90;;;;;;5053577;28;20081;-64
2022/07/04 05:28:08;;;;;;;8.95;3.35;;;17.60;99.90;;;;;;5053400;28;20052;-64
2022/07/04 05:30:34;;;;;;;12.30;4.57;;;17.80;99.90;;;;;;5053088;28;20017;-62
2022/07/04 05:33:01;;;;;;;7.05;2.50;;;18.20;99.90;;;;;;5052706;28;20049;-64
2022/07/04 05:35:27;;;;;;;6.07;2.78;;;18.70;99.90;;;;;;5053456;28;20017;-65
2022/07/04 05:37:53;;;;;;;6.55;3.28;;;19.30;99.90;;;;;;5053069;28;20063;-66
2022/07/04 05:40:21;;;;;;;3.63;1.92;;;19.90;99.90;;;;;;5053208;28;20033;-65
2022/07/04 05:42:47;;;;;;;8.52;2.50;;;20.60;99.90;;;;;;5053794;28;20028;-64
2022/07/04 05:45:12;;;;;;;6.60;2.30;;;21.30;99.90;;;;;;5050658;28;20032;-64
2022/07/04 05:47:38;;;;;;;5.13;1.70;;;22.00;99.90;;;;;;5052124;28;20024;-67
2022/07/04 05:50:04;;;;;;;4.07;1.88;;;22.70;99.90;;;;;;5051942;28;20032;-66
2022/07/04 05:52:30;;;;;;;4.20;2.17;;;23.20;99.90;;;;;;5051588;28;20025;-64
2022/07/04 05:54:56;;;;;;;7.07;1.70;;;23.80;99.90;;;;;;5051525;28;20036;-64
2022/07/04 05:57:21;;;;;;;4.78;1.70;;;24.50;99.40;;;;;;5052986;28;20107;-66
2022/07/04 05:59:47;;;;;;;5.50;2.22;;;25.00;97.80;;;;;;5053588;28;20078;-64
2022/07/04 06:02:14;;;;;;;5.70;2.35;;;25.40;96.70;;;;;;5053394;28;20124;-68
2022/07/04 06:04:40;;;;;;;2.95;1.58;;;25.90;96.00;;;;;;5053473;28;20039;-64
2022/07/04 06:07:05;;;;;;;6.40;2.15;;;26.30;94.60;;;;;;5053410;28;20446;-64
2022/07/04 06:09:31;;;;;;;5.05;1.60;;;26.60;94.40;;;;;;5053176;28;20030;-64
2022/07/04 06:11:56;;;;;;;3.47;1.75;;;27.10;93.70;;;;;;5052483;28;20413;-65
2022/07/04 06:14:22;;;;;;;5.18;2.05;;;27.60;92.70;;;;;;5052858;28;20067;-64
2022/07/04 06:16:48;;;;;;;2.50;1.10;;;28.10;92.30;;;;;;5053307;28;20028;-64
2022/07/04 06:19:13;;;;;;;3.13;1.13;;;28.40;90.60;;;;;;5052723;28;20071;-65
2022/07/04 06:21:39;;;;;;;3.22;1.40;;;28.50;90.90;;;;;;5052337;28;20025;-64
2022/07/04 06:24:05;;;;;;;2.58;1.23;;;28.90;90.00;;;;;;5052994;28;20032;-65
2022/07/04 06:26:30;;;;;;;3.42;1.27;;;29.10;88.20;;;;;;5053028;28;20041;-66
2022/07/04 06:28:57;;;;;;;3.38;1.30;;;29.40;87.10;;;;;;5051489;28;20374;-64
2022/07/04 06:31:22;;;;;;;4.00;1.55;;;29.70;86.50;;;;;;5051880;28;20016;-68
2022/07/04 06:36:32;;;;;;;1.60;1.17;;;30.00;83.50;;;;;;5032086;28;20279;-65
2022/07/04 06:38:59;;;;;;;3.05;1.30;;;30.20;83.40;;;;;;5037415;28;20060;-66
2022/07/04 06:41:24;;;;;;;3.22;1.42;;;30.50;82.60;;;;;;5052074;28;20071;-66
2022/07/04 06:43:50;;;;;;;3.80;1.40;;;30.50;81.40;;;;;;5052096;28;20029;-64
2022/07/04 06:46:15;;;;;;;3.63;1.25;;;30.50;80.80;;;;;;5052266;28;20033;-64
2022/07/04 06:48:41;;;;;;;3.88;1.10;;;30.50;80.20;;;;;;5052517;28;20025;-66
2022/07/04 06:51:06;;;;;;;3.50;1.13;;;30.60;79.60;;;;;;5052379;28;20148;-67
2022/07/04 06:53:32;;;;;;;5.07;1.25;;;30.40;78.20;;;;;;5052322;28;20051;-64
2022/07/04 06:55:58;;;;;;;4.95;1.38;;;30.30;78.70;;;;;;5050356;28;20059;-67
2022/07/04 06:58:23;;;;;;;3.17;1.30;;;30.40;79.10;;;;;;5052563;28;20078;-65
2022/07/04 07:00:49;;;;;;;2.03;1.08;;;30.70;78.90;;;;;;5051792;28;20442;-64
2022/07/04 07:03:14;;;;;;;3.85;1.27;;;31.00;78.80;;;;;;5052035;28;20522;-65
2022/07/04 07:05:40;;;;;;;2.92;1.25;;;31.10;76.90;;;;;;5052517;28;20123;-64
2022/07/04 07:08:06;;;;;;;2.65;0.93;;;31.10;77.60;;;;;;5047386;28;20016;-64
2022/07/04 07:10:32;;;;;;;1.85;1.25;;;31.20;77.30;;;;;;5050890;28;20047;-67
2022/07/04 07:12:59;;;;;;;3.92;1.67;;;31.30;76.70;;;;;;5052048;28;20044;-65
2022/07/04 07:15:24;;;;;;;2.08;1.25;;;31.40;76.30;;;;;;5051800;28;20102;-66
2022/07/04 07:17:50;;;;;;;5.53;1.35;;;31.50;75.50;;;;;;5052237;28;20033;-66
2022/07/04 07:20:16;;;;;;;3.20;0.98;;;31.70;75.60;;;;;;5052107;28;20021;-65
2022/07/04 07:22:42;;;;;;;3.22;1.17;;;31.70;75.70;;;;;;5052192;28;20074;-64
2022/07/04 07:25:11;;;;;;;6.28;1.35;;;31.60;75.60;;;;;;5050875;28;20064;-64
2022/07/04 07:27:37;;;;;;;2.45;1.08;;;31.80;74.90;;;;;;5052524;28;20048;-64
2022/07/04 07:30:04;;;;;;;2.90;1.15;;;32.00;74.80;;;;;;5050800;28;20544;-66
2022/07/04 07:32:29;;;;;;;2.30;1.20;;;31.90;74.20;;;;;;5050121;28;20137;-65
2022/07/04 07:34:55;;;;;;;2.95;0.90;;;31.60;74.20;;;;;;5051443;28;20092;-63
2022/07/04 07:37:22;;;;;;;7.32;1.92;;;31.10;74.70;;;;;;5052124;28;20100;-67
2022/07/04 07:39:47;;;;;;;1.63;1.10;;;31.00;75.40;;;;;;5052206;28;20028;-64
2022/07/04 07:42:13;;;;;;;4.45;1.40;;;30.70;73.40;;;;;;5051327;28;20020;-64
2022/07/04 07:44:39;;;;;;;4.75;1.30;;;30.60;74.40;;;;;;5052321;28;20430;-65
2022/07/04 07:47:05;;;;;;;4.22;1.20;;;30.80;74.70;;;;;;5051907;28;20057;-65
2022/07/04 07:49:31;;;;;;;3.55;1.10;;;31.00;74.10;;;;;;5051600;28;20451;-67
2022/07/04 07:51:56;;;;;;;3.80;1.20;;;30.70;75.00;;;;;;5051718;28;20032;-65
2022/07/04 07:54:22;;;;;;;2.60;1.30;;;30.70;74.40;;;;;;5051673;28;20021;-65
2022/07/04 07:56:47;;;;;;;2.75;1.20;;;30.80;74.00;;;;;;5053948;28;20461;-65
2022/07/04 07:59:13;;;;;;;2.97;1.27;;;30.70;74.90;;;;;;5048412;28;20096;-65
2022/07/04 08:01:39;;;;;;;3.22;1.23;;;30.70;74.90;;;;;;5045623;28;20462;-64
2022/07/04 08:06:49;;;;;;;4.15;1.10;;;29.90;75.60;;;;;;5053792;28;20118;-65
2022/07/04 08:09:15;;;;;;;2.75;1.08;;;29.50;75.50;;;;;;5055693;28;20056;-66
2022/07/04 08:11:41;;;;;;;1.73;0.93;;;29.10;76.50;;;;;;5054934;28;20032;-65
2022/07/04 08:14:07;;;;;;;3.90;1.52;;;28.80;77.30;;;;;;5055249;28;20025;-67
2022/07/04 08:16:33;;;;;;;6.85;1.60;;;28.60;77.30;;;;;;5054633;28;20028;-64
2022/07/04 08:18:59;;;;;;;3.03;1.42;;;28.30;77.40;;;;;;5054624;28;20029;-64
2022/07/04 08:21:25;;;;;;;5.45;1.40;;;28.00;78.80;;;;;;5051089;28;20029;-65
2022/07/04 08:23:50;;;;;;;5.15;1.50;;;27.70;80.10;;;;;;5054288;28;20021;-63
2022/07/04 08:26:16;;;;;;;5.45;1.80;;;27.60;80.10;;;;;;5054914;28;20045;-65
2022/07/04 08:28:41;;;;;;;4.63;1.60;;;27.80;81.00;;;;;;5054945;28;20312;-68
2022/07/04 08:31:07;;;;;;;5.38;1.45;;;28.50;79.90;;;;;;5054380;28;20040;-66
2022/07/04 08:33:33;;;;;;;4.53;1.45;;;29.00;79.10;;;;;;5054318;28;20044;-67
2022/07/04 08:35:59;;;;;;;2.50;1.27;;;29.60;78.20;;;;;;5054580;28;20056;-65
2022/07/04 08:38:25;;;;;;;7.15;1.58;;;30.30;76.60;;;;;;5054922;28;20427;-65
2022/07/04 08:40:58;;;;;;;6.65;1.92;;;30.90;75.40;;;;;;5054832;28;20068;-65
2022/07/04 08:43:26;;;;;;;5.53;1.60;;;31.30;75.10;;;;;;5054407;28;20021;-65
2022/07/04 08:45:54;;;;;;;5.65;2.20;;;31.80;75.00;;;;;;5054162;28;20037;-68
2022/07/04 08:48:23;;;;;;;2.90;1.70;;;32.10;73.50;;;;;;5050495;28;20021;-65
2022/07/04 08:50:55;;;;;;;4.25;1.33;;;32.50;73.20;;;;;;5054731;28;20068;-64
2022/07/04 08:53:22;;;;;;;3.10;1.20;;;32.20;73.60;;;;;;5053454;28;20021;-65
2022/07/04 08:58:33;;;;;;;4.18;1.70;;;31.50;74.30;;;;;;5055060;28;20428;-67
2022/07/04 09:01:04;;;;;;;4.78;1.75;;;31.30;73.40;;;;;;5054035;28;20032;-66
2022/07/04 09:03:32;;;;;;;5.22;1.60;;;31.10;73.80;;;;;;5054262;28;20033;-65
2022/07/04 09:05:58;;;;;;;2.95;1.27;;;30.60;74.00;;;;;;5054542;28;20041;-65
2022/07/04 09:08:24;;;;;;;7.93;1.40;;;30.30;76.10;;;;;;5053519;28;20052;-65
2022/07/04 09:10:51;;;;;;;5.22;1.75;;;30.70;75.80;;;;;;5053854;28;20067;-66
2022/07/04 09:13:18;;;;;;;2.90;1.75;;;31.60;72.90;;;;;;5053638;28;20020;-65
2022/07/04 09:15:49;;;;;;;5.10;1.48;;;32.40;71.40;;;;;;5052576;28;20029;-65
2022/07/04 09:18:41;;;;;;;2.97;1.27;;;33.20;70.10;;;;;;5053725;28;20103;-65
2022/07/04 09:21:08;;;;;;;7.03;1.27;;;33.70;69.00;;;;;;5050315;28;20036;-65
2022/07/04 09:23:42;;;;;;;4.53;1.35;;;34.10;67.10;;;;;;5053307;28;20051;-67
2022/07/04 09:26:10;;;;;;;4.03;1.20;;;33.70;66.50;;;;;;5055488;28;20127;-67
2022/07/04 09:28:37;;;;;;;7.00;1.50;;;33.80;64.60;;;;;;5054347;28;20025;-65
2022/07/04 09:31:20;;;;;;;2.83;1.05;;;34.00;65.40;;;;;;5064184;28;20417;-65
2022/07/04 09:33:54;;;;;;;3.33;1.13;;;34.40;64.80;;;;;;5034606;28;20124;-64
2022/07/04 09:36:22;;;;;;;6.13;1.40;;;34.40;63.90;;;;;;5033954;28;20020;-66
2022/07/04 09:39:21;;;;;;;3.83;1.10;;;34.70;62.30;;;;;;5041119;28;20012;-65
2022/07/04 09:41:50;;;;;;;2.50;1.20;;;34.90;63.10;;;;;;5074377;28;20355;-65
2022/07/04 09:44:16;;;;;;;3.20;1.10;;;35.10;60.90;;;;;;5067721;28;20051;-66
2022/07/04 09:46:41;;;;;;;2.80;0.90;;;35.10;60.40;;;;;;5053545;28;20122;-65
2022/07/04 09:49:07;;;;;;;3.08;1.10;;;35.00;60.10;;;;;;5052789;28;20063;-68
2022/07/04 09:51:43;;;;;;;3.90;1.20;;;34.10;61.40;;;;;;5054116;28;20056;-68
2022/07/04 09:54:26;;;;;;;3.78;1.02;;;33.80;61.70;;;;;;5053720;28;20470;-68
2022/07/04 09:56:57;;;;;;;2.65;0.90;;;34.30;59.40;;;;;;5065584;28;20024;-65
2022/07/04 09:59:24;;;;;;;2.85;0.95;;;34.10;58.40;;;;;;5052334;28;20055;-68
2022/07/04 10:01:50;;;;;;;2.15;0.90;;;33.90;57.80;;;;;;5053818;28;20052;-67
2022/07/04 10:04:17;;;;;;;1.90;0.90;;;34.20;59.00;;;;;;5053837;28;20052;-65
2022/07/04 10:06:45;;;;;;;1.40;0.80;;;34.60;58.20;;;;;;5053836;28;20040;-64
2022/07/04 10:09:16;;;;;;;3.25;0.95;;;34.60;56.90;;;;;;5053222;28;20059;-64
2022/07/04 10:11:43;;;;;;;1.02;0.40;;;34.80;56.90;;;;;;5052748;28;20028;-65
2022/07/04 10:14:11;;;;;;;1.02;0.60;;;35.20;53.10;;;;;;5053908;28;20108;-65
2022/07/04 10:16:38;;;;;;;2.42;0.55;;;35.30;55.80;;;;;;5053608;28;20029;-66
2022/07/04 10:19:04;;;;;;;1.40;0.57;;;35.20;54.70;;;;;;5053402;28;20017;-66
2022/07/04 10:21:30;;;;;;;1.50;0.55;;;35.30;54.40;;;;;;5053429;28;20114;-65
2022/07/04 10:23:56;;;;;;;1.63;0.63;;;35.50;55.30;;;;;;5053736;28;20055;-65
2022/07/04 10:26:22;;;;;;;1.17;0.65;;;35.60;52.40;;;;;;5053155;28;20036;-65
2022/07/04 10:28:51;;;;;;;1.58;0.70;;;35.70;52.70;;;;;;5053449;28;20104;-63
2022/07/04 10:31:19;;;;;;;2.65;0.75;;;35.40;54.40;;;;;;5063490;28;20047;-66
2022/07/04 10:33:45;;;;;;;3.20;1.00;;;35.50;53.30;;;;;;5051989;28;20045;-65
2022/07/04 10:36:19;;;;;;;1.80;0.70;;;35.70;54.80;;;;;;5052868;28;20103;-63
2022/07/04 10:38:58;;;;;;;3.38;0.90;;;35.90;54.50;;;;;;5053100;28;20029;-67
2022/07/04 10:41:24;;;;;;;2.10;1.10;;;36.30;54.90;;;;;;5052003;28;20390;-64
2022/07/04 10:44:02;;;;;;;2.15;1.17;;;36.60;51.90;;;;;;5053394;28;20453;-64
2022/07/04 10:46:43;;;;;;;4.95;1.10;;;36.80;53.80;;;;;;5050780;28;20091;-64
2022/07/04 10:49:15;;;;;;;3.35;0.75;;;36.90;52.40;;;;;;5050636;28;20064;-63
2022/07/04 10:51:41;;;;;;;1.50;0.85;;;37.00;52.60;;;;;;5051061;28;20020;-65
2022/07/04 10:54:09;;;;;;;3.10;1.10;;;36.90;52.30;;;;;;5051023;28;20020;-64
2022/07/04 10:56:44;;;;;;;2.80;0.80;;;36.70;52.30;;;;;;5055800;28;20097;-67
2022/07/04 10:59:21;;;;;;;3.70;0.85;;;36.10;52.20;;;;;;5058548;28;20021;-66
2022/07/04 11:01:52;;;;;;;2.50;1.05;;;36.00;52.20;;;;;;5059716;28;20017;-67
2022/07/04 11:04:47;;;;;;;4.38;2.58;;;36.10;51.80;;;;;;5072845;28;20111;-66
2022/07/04 11:07:16;;;;;;;2.65;0.93;;;36.20;50.90;;;;;;5073302;28;20032;-66
2022/07/04 11:09:45;;;;;;;1.08;0.80;;;36.50;51.90;;;;;;5073228;28;20039;-68
2022/07/04 11:12:14;;;;;;;2.08;0.95;;;36.40;49.10;;;;;;5072313;28;20043;-66
2022/07/04 11:14:44;;;;;;;4.20;1.77;;;36.40;50.00;;;;;;5053304;28;20366;-67
2022/07/04 11:17:12;;;;;;;3.75;0.70;;;36.40;51.10;;;;;;5040302;28;20035;-69
2022/07/04 11:19:39;;;;;;;1.75;1.05;;;36.30;51.00;;;;;;5038009;28;20021;-65
2022/07/04 11:22:07;;;;;;;2.42;0.60;;;36.50;51.10;;;;;;5052140;28;20139;-65
2022/07/04 11:24:33;;;;;;;1.88;0.70;;;36.70;49.50;;;;;;5053256;28;20063;-65
2022/07/04 11:26:59;;;;;;;1.30;0.88;;;36.60;49.20;;;;;;5052131;28;20128;-64
2022/07/04 11:29:24;;;;;;;1.83;0.60;;;36.70;49.60;;;;;;5052802;28;20076;-64
2022/07/04 11:31:51;;;;;;;1.40;0.73;;;36.30;50.10;;;;;;5054152;28;20104;-66
2022/07/04 11:34:18;;;;;;;1.02;0.57;;;36.30;49.90;;;;;;5056482;28;20036;-66
2022/07/04 11:36:46;;;;;;;1.48;0.73;;;36.40;49.40;;;;;;5056259;28;20037;-66
2022/07/04 11:39:14;;;;;;;2.80;0.98;;;36.50;49.20;;;;;;5056282;28;20028;-66
2022/07/04 11:47:18;;;;;;;2.00;0.70;;;36.00;49.00;;;;;;5056104;28;20155;-64
2022/07/04 11:49:53;;;;;;;0.52;0.52;;;36.00;50.00;;;;;;5055730;28;20111;-68
2022/07/04 11:52:28;;;;;;;2.00;0.50;;;36.10;49.70;;;;;;5054362;28;20027;-66
2022/07/04 11:54:53;;;;;;;1.10;0.50;;;36.40;49.50;;;;;;5055950;28;20025;-65
2022/07/04 11:57:25;;;;;;;2.80;0.70;;;36.40;49.10;;;;;;5055447;28;20028;-68
2022/07/04 11:59:54;;;;;;;2.83;0.70;;;36.50;49.10;;;;;;5055147;28;20025;-64
2022/07/04 12:02:20;;;;;;;2.60;0.63;;;36.70;49.20;;;;;;5055892;28;20024;-66
2022/07/04 12:04:45;;;;;;;1.50;0.60;;;36.80;48.40;;;;;;5054911;28;20021;-65
2022/07/04 12:07:13;;;;;;;1.63;0.65;;;36.40;49.60;;;;;;5055106;28;20025;-68
2022/07/04 12:09:39;;;;;;;0.55;0.50;;;36.40;49.50;;;;;;5053198;28;20025;-65
2022/07/04 12:12:05;;;;;;;0.82;0.38;;;36.30;49.10;;;;;;5054833;28;20036;-66
2022/07/04 12:14:31;;;;;;;2.13;0.43;;;36.00;48.00;;;;;;5040605;28;20072;-66
2022/07/04 12:17:38;;;;;;;1.17;0.43;;;36.00;47.60;;;;;;5047570;28;20173;-67
2022/07/04 12:20:17;;;;;;;3.53;0.43;;;35.90;48.50;;;;;;5027213;28;20041;-64
2022/07/04 12:22:57;;;;;;;1.80;0.55;;;36.00;49.50;;;;;;5055322;28;20550;-64
2022/07/04 12:25:36;;;;;;;2.88;0.80;;;35.90;49.10;;;;;;5055463;28;20104;-65
2022/07/04 12:28:08;;;;;;;2.60;0.60;;;35.80;50.30;;;;;;5050253;28;20120;-65
2022/07/04 12:30:38;;;;;;;3.50;0.73;;;35.90;48.00;;;;;;5044134;28;20033;-65
2022/07/04 12:33:06;;;;;;;0.93;0.45;;;35.80;48.20;;;;;;5053816;28;20478;-66
2022/07/04 12:35:47;;;;;;;2.25;1.13;;;35.70;48.50;;;;;;5054649;28;20032;-65
2022/07/04 12:38:16;;;;;;;2.10;0.60;;;35.60;47.90;;;;;;5053328;28;20017;-65
2022/07/04 12:40:55;;;;;;;1.45;0.40;;;35.30;49.10;;;;;;5053517;28;20025;-65
2022/07/04 12:43:22;;;;;;;1.77;0.47;;;34.90;48.60;;;;;;5053793;28;20370;-67
2022/07/04 12:45:50;;;;;;;2.00;0.50;;;34.50;47.50;;;;;;5055167;28;20025;-67
2022/07/04 12:48:23;;;;;;;1.85;0.60;;;34.10;47.40;;;;;;5044073;28;20035;-64
2022/07/04 12:50:50;;;;;;;1.73;0.50;;;33.70;48.40;;;;;;5047278;28;20170;-65
2022/07/04 12:53:17;;;;;;;1.48;0.57;;;33.30;49.50;;;;;;5055375;28;20075;-65
2022/07/04 12:55:43;;;;;;;1.77;0.95;;;32.80;50.00;;;;;;5071272;28;20033;-66
2022/07/04 12:58:09;;;;;;;1.65;0.70;;;32.20;50.00;;;;;;5065214;28;20025;-67
2022/07/04 13:00:36;;;;;;;2.90;1.05;;;31.70;51.80;;;;;;5054578;28;20086;-68